Time;durP1;ratioP1;P1;durP2;ratioP2;P2;SDS_P1;SDS_P2;PMS_P1;PMS_P2;Temp;Humidity;BMP_temperature;BMP_pressure;BME280_temperature;BME280_humidity;BME280_pressure;Samples;Min_cycle;Max_cycle;Signal;HPM_P1;HPM_P2
2023/03/10 00:02:29;;;;;;;6.80;2.47;;;10.30;96.70;;;;;;20983706;28;20221;-73
2023/03/10 00:12:31;;;;;;;7.97;2.50;;;10.50;96.60;;;;;;20982990;28;20219;-73
2023/03/10 00:22:34;;;;;;;3.77;1.50;;;10.90;95.60;;;;;;20981713;28;20252;-73
2023/03/10 00:32:35;;;;;;;5.00;1.60;;;11.20;94.70;;;;;;20980627;28;20264;-73
2023/03/10 00:42:37;;;;;;;2.50;1.40;;;11.30;94.50;;;;;;20979660;28;20675;-74
2023/03/10 00:52:39;;;;;;;2.67;1.50;;;11.40;94.70;;;;;;20978744;28;20618;-74
2023/03/10 01:02:40;;;;;;;2.97;1.30;;;11.30;94.90;;;;;;20929403;28;20233;-74
2023/03/10 01:12:42;;;;;;;1.77;1.00;;;11.40;95.30;;;;;;20923107;28;20209;-73
2023/03/10 01:22:44;;;;;;;1.90;0.93;;;11.30;95.60;;;;;;20922516;28;20669;-73
2023/03/10 01:32:46;;;;;;;1.57;0.93;;;11.30;96.00;;;;;;20923824;28;20228;-73
2023/03/10 01:42:47;;;;;;;1.43;0.93;;;11.30;96.30;;;;;;20921109;28;20241;-73
2023/03/10 01:52:55;;;;;;;1.93;0.80;;;11.30;96.40;;;;;;20919924;28;20216;-73
2023/03/10 02:03:17;;;;;;;1.47;0.80;;;11.30;96.50;;;;;;20918962;28;20315;-73
2023/03/10 02:13:19;;;;;;;0.90;0.80;;;11.30;96.60;;;;;;20917722;28;20681;-74
2023/03/10 02:23:53;;;;;;;1.73;1.07;;;11.40;96.80;;;;;;20917397;28;20231;-72
2023/03/10 02:34:05;;;;;;;2.50;0.60;;;11.30;97.00;;;;;;20916497;28;20212;-73
2023/03/10 02:44:10;;;;;;;0.77;0.73;;;11.30;97.20;;;;;;20916618;28;20301;-72
2023/03/10 02:54:13;;;;;;;0.93;0.63;;;11.30;97.40;;;;;;20915190;28;20215;-72
2023/03/10 03:04:15;;;;;;;2.03;0.50;;;;;;;;;;20907626;28;20244;-73
2023/03/10 03:14:17;;;;;;;0.40;0.40;;;11.30;97.70;;;;;;20873569;28;20240;-73
2023/03/10 03:24:20;;;;;;;0.70;0.70;;;;;;;;;;20830560;28;20263;-74
2023/03/10 03:34:22;;;;;;;1.13;0.80;;;11.30;98.20;;;;;;20830455;28;20573;-74
2023/03/10 03:44:24;;;;;;;0.77;0.77;;;11.30;98.40;;;;;;20829893;28;20647;-74
2023/03/10 03:54:26;;;;;;;1.40;1.00;;;11.30;98.70;;;;;;20829012;28;20224;-73
2023/03/10 04:04:27;;;;;;;1.87;1.17;;;11.10;99.00;;;;;;20829011;28;20279;-74
2023/03/10 04:14:29;;;;;;;3.50;1.27;;;11.20;99.20;;;;;;20828725;28;20205;-73
2023/03/10 04:24:31;;;;;;;2.57;1.00;;;11.10;99.30;;;;;;20828256;28;20765;-74
2023/03/10 04:34:32;;;;;;;3.50;1.00;;;11.20;99.30;;;;;;20836176;28;20215;-73
2023/03/10 04:44:34;;;;;;;1.87;1.20;;;11.10;99.40;;;;;;20842901;28;20279;-73
2023/03/10 04:54:36;;;;;;;2.20;1.20;;;11.10;99.60;;;;;;20841590;28;20207;-73
2023/03/10 05:04:38;;;;;;;2.50;1.20;;;11.10;99.70;;;;;;20841486;28;20242;-72
2023/03/10 05:14:40;;;;;;;2.90;1.20;;;;;;;;;;20840914;28;20610;-72
2023/03/10 05:24:42;;;;;;;1.90;1.30;;;11.10;99.90;;;;;;20839850;28;20239;-74
2023/03/10 05:34:44;;;;;;;2.87;1.90;;;11.00;99.90;;;;;;20838026;28;20209;-73
2023/03/10 05:44:45;;;;;;;2.93;1.10;;;11.00;99.90;;;;;;20839049;28;20730;-73
2023/03/10 05:54:47;;;;;;;3.37;1.83;;;10.90;99.90;;;;;;20837214;28;20204;-74
2023/03/10 06:04:49;;;;;;;3.10;1.50;;;10.80;99.90;;;;;;20836434;28;20625;-74
2023/03/10 06:14:50;;;;;;;3.17;1.90;;;10.90;99.90;;;;;;20836070;28;20207;-77
2023/03/10 06:24:52;;;;;;;2.33;1.30;;;10.90;99.90;;;;;;20834494;28;20242;-77
2023/03/10 06:34:54;;;;;;;3.70;2.13;;;10.90;99.90;;;;;;20834226;28;20219;-76
2023/03/10 06:44:55;;;;;;;2.40;1.30;;;11.10;99.90;;;;;;20833405;28;20322;-77
2023/03/10 06:54:57;;;;;;;2.70;1.37;;;;;;;;;;20832211;28;20213;-77
2023/03/10 07:04:59;;;;;;;4.27;1.30;;;11.50;99.90;;;;;;20831889;28;20281;-76
2023/03/10 07:15:01;;;;;;;2.07;1.00;;;11.70;99.90;;;;;;20831541;28;20211;-75
2023/03/10 07:25:03;;;;;;;3.77;1.27;;;11.80;99.90;;;;;;20830048;28;20305;-74
2023/03/10 07:35:06;;;;;;;2.90;1.33;;;11.90;99.90;;;;;;20829840;28;20240;-75
2023/03/10 07:45:08;;;;;;;1.17;0.83;;;12.00;99.90;;;;;;20829619;28;20258;-76
2023/03/10 07:55:10;;;;;;;2.07;1.00;;;12.10;99.50;;;;;;20829164;28;20223;-76
2023/03/10 08:05:13;;;;;;;2.30;1.00;;;12.10;98.90;;;;;;20830206;28;20252;-76
2023/03/10 08:15:15;;;;;;;1.97;0.97;;;12.20;98.70;;;;;;20845192;28;20225;-76
2023/03/10 08:25:17;;;;;;;3.07;1.20;;;12.10;98.40;;;;;;20844224;28;20235;-75
2023/03/10 08:35:19;;;;;;;2.10;1.00;;;;;;;;;;20843540;28;20214;-76
2023/03/10 08:45:21;;;;;;;5.20;1.53;;;;;;;;;;20840857;28;20605;-76
2023/03/10 08:55:23;;;;;;;2.10;1.10;;;;;;;;;;20842206;28;20297;-76
2023/03/10 09:05:27;;;;;;;4.57;1.00;;;;;;;;;;20840520;28;20280;-76
2023/03/10 09:15:28;;;;;;;5.13;1.30;;;12.90;96.40;;;;;;20838982;28;20299;-76
2023/03/10 09:25:30;;;;;;;2.07;1.10;;;13.10;95.60;;;;;;20839440;28;20318;-74
2023/03/10 09:35:32;;;;;;;3.83;2.87;;;12.70;94.60;;;;;;20838746;28;20207;-75
2023/03/10 09:45:44;;;;;;;2.20;1.03;;;12.50;94.00;;;;;;20837744;28;20246;-73
2023/03/10 09:55:46;;;;;;;1.90;1.20;;;12.50;93.40;;;;;;20839478;28;20306;-74
2023/03/10 10:05:52;;;;;;;8.13;1.00;;;12.10;94.00;;;;;;20836388;28;20252;-73
2023/03/10 10:16:04;;;;;;;1.67;1.10;;;;;;;;;;20835517;28;20616;-74
2023/03/10 10:26:27;;;;;;;3.40;1.30;;;11.90;94.70;;;;;;20866696;28;20235;-74
2023/03/10 10:36:34;;;;;;;3.00;1.10;;;12.30;94.50;;;;;;20962753;28;20203;-75
2023/03/10 10:46:36;;;;;;;5.33;1.50;;;12.50;94.20;;;;;;20949428;28;20248;-75
2023/03/10 10:56:51;;;;;;;3.67;1.70;;;12.40;93.90;;;;;;20944678;28;20309;-75
2023/03/10 11:07:08;;;;;;;3.43;1.30;;;12.60;94.10;;;;;;20974790;28;20230;-73
2023/03/10 11:17:13;;;;;;;6.03;1.50;;;13.20;93.30;;;;;;20934741;28;20212;-75
2023/03/10 11:27:33;;;;;;;2.97;1.10;;;13.70;92.60;;;;;;20973804;28;20241;-75
2023/03/10 11:37:44;;;;;;;2.37;1.20;;;13.60;92.10;;;;;;20917160;28;20212;-75
2023/03/10 11:47:56;;;;;;;4.13;1.33;;;13.40;92.30;;;;;;20929973;28;20300;-76
2023/03/10 12:03:55;;;;;;;4.97;1.30;;;;;;;;;;21089276;27;21093;-75
2023/03/10 12:13:59;;;;;;;4.77;1.40;;;12.80;95.10;;;;;;21009619;28;20327;-74
2023/03/10 12:24:03;;;;;;;3.57;1.20;;;12.70;95.10;;;;;;21104811;28;20597;-73
2023/03/10 12:34:31;;;;;;;4.07;1.10;;;12.70;95.30;;;;;;21133994;28;20685;-75
2023/03/10 12:44:42;;;;;;;4.07;1.10;;;12.70;94.90;;;;;;21061036;28;20553;-75
2023/03/10 13:05:02;;;;;;;1.23;0.70;;;12.60;93.60;;;;;;21115968;28;20566;-75
2023/03/10 13:15:07;;;;;;;0.80;0.80;;;12.50;93.40;;;;;;21087316;28;20265;-73
2023/03/10 13:25:13;;;;;;;2.40;1.00;;;12.60;93.50;;;;;;21068638;28;20211;-74
2023/03/10 13:35:30;;;;;;;1.17;0.90;;;12.50;93.30;;;;;;21149109;28;20234;-73
2023/03/10 13:45:32;;;;;;;2.60;0.70;;;12.30;93.40;;;;;;21148563;28;20599;-74
2023/03/10 13:55:40;;;;;;;2.90;0.90;;;12.00;94.00;;;;;;21127495;28;20246;-73
2023/03/10 14:05:47;;;;;;;1.60;0.87;;;12.20;94.60;;;;;;21124061;28;20572;-71
2023/03/10 14:15:53;;;;;;;0.67;0.67;;;12.10;94.60;;;;;;21044164;28;20231;-74
2023/03/10 14:25:57;;;;;;;0.80;0.80;;;12.10;95.00;;;;;;21061188;28;20214;-74
2023/03/10 14:35:59;;;;;;;1.23;0.70;;;11.90;95.30;;;;;;21022440;28;20234;-74
2023/03/10 14:46:01;;;;;;;0.93;0.73;;;11.50;96.00;;;;;;20997306;28;20213;-76
2023/03/10 14:56:04;;;;;;;0.60;0.60;;;11.20;97.20;;;;;;20974157;28;20271;-73
2023/03/10 15:06:08;;;;;;;1.20;1.00;;;11.00;97.80;;;;;;21041049;28;20625;-74
2023/03/10 15:16:12;;;;;;;1.43;1.17;;;10.70;98.90;;;;;;21060314;28;20242;-73
2023/03/10 15:26:14;;;;;;;1.30;1.00;;;10.60;99.70;;;;;;21084068;28;20221;-75
2023/03/10 15:42:09;;;;;;;0.80;0.80;;;10.80;99.90;;;;;;21069106;28;21182;-77
2023/03/10 15:52:12;;;;;;;0.93;0.90;;;10.70;99.90;;;;;;21068070;28;20213;-76
2023/03/10 16:02:14;;;;;;;1.23;0.80;;;10.60;99.90;;;;;;21081164;28;20217;-76
2023/03/10 16:12:16;;;;;;;0.80;0.70;;;10.50;99.90;;;;;;21150092;28;20217;-74
2023/03/10 16:22:17;;;;;;;1.30;0.63;;;10.20;99.90;;;;;;21148415;28;20264;-76
2023/03/10 16:32:19;;;;;;;0.70;0.70;;;10.00;99.90;;;;;;21147777;28;20219;-76
2023/03/10 16:43:11;;;;;;;0.70;0.70;;;9.80;99.80;;;;;;21068053;28;20573;-76
2023/03/10 16:53:13;;;;;;;1.10;0.93;;;9.60;99.10;;;;;;21066022;28;20211;-74
2023/03/10 17:03:18;;;;;;;0.80;0.80;;;;;;;;;;21057980;28;20257;-77
2023/03/10 17:13:20;;;;;;;1.10;0.80;;;9.20;99.40;;;;;;21039254;28;20262;-75
2023/03/10 17:23:22;;;;;;;1.23;1.00;;;;;;;;;;21065185;28;20225;-79
2023/03/10 17:33:24;;;;;;;1.17;1.00;;;9.10;98.70;;;;;;21064108;28;20213;-80
2023/03/10 17:43:30;;;;;;;2.50;1.30;;;9.10;97.70;;;;;;21064580;28;20281;-77
2023/03/10 17:53:35;;;;;;;1.97;1.17;;;9.00;97.20;;;;;;21012584;28;20322;-85
2023/03/10 18:05:12;;;;;;;4.80;1.63;;;9.10;96.50;;;;;;21111007;27;20645;-75
2023/03/10 18:15:14;;;;;;;4.50;1.40;;;;;;;;;;21166008;28;20239;-76
2023/03/10 18:25:16;;;;;;;3.03;1.30;;;9.00;95.00;;;;;;21152977;28;20631;-76
2023/03/10 18:35:17;;;;;;;2.10;1.60;;;8.90;94.40;;;;;;21150403;28;20603;-73
2023/03/10 18:45:19;;;;;;;3.77;1.80;;;8.90;93.90;;;;;;21149645;28;20211;-74
2023/03/10 18:55:21;;;;;;;4.20;1.70;;;8.70;94.00;;;;;;21147616;28;20210;-76
2023/03/10 19:05:22;;;;;;;43.93;26.07;;;8.60;94.20;;;;;;21105407;28;20217;-75
2023/03/10 19:15:24;;;;;;;3.00;1.57;;;8.50;92.50;;;;;;21012167;28;20263;-77
2023/03/10 19:25:26;;;;;;;1.43;1.30;;;;;;;;;;21003424;28;20821;-77
2023/03/10 19:35:28;;;;;;;1.57;1.47;;;;;;;;;;21005318;28;20217;-76
2023/03/10 19:45:30;;;;;;;3.10;1.70;;;8.50;91.20;;;;;;21004353;28;20215;-76
2023/03/10 19:55:32;;;;;;;1.03;1.00;;;7.60;94.00;;;;;;21003879;28;20289;-79
2023/03/10 20:05:33;;;;;;;1.10;0.90;;;7.00;94.30;;;;;;21000329;28;20213;-80
2023/03/10 20:15:36;;;;;;;1.30;1.20;;;6.10;94.80;;;;;;21000873;28;20204;-84
2023/03/10 20:25:38;;;;;;;1.40;1.23;;;5.80;94.30;;;;;;20998854;28;20570;-82
2023/03/10 20:35:40;;;;;;;1.60;1.50;;;5.70;94.20;;;;;;20998003;28;20253;-80
2023/03/10 20:45:41;;;;;;;1.40;1.30;;;5.60;93.50;;;;;;20995660;28;20237;-76
2023/03/10 20:55:43;;;;;;;2.30;1.93;;;5.50;91.70;;;;;;20996520;28;20239;-77
2023/03/10 21:05:45;;;;;;;2.57;2.27;;;5.30;90.50;;;;;;20997566;28;20581;-84
2023/03/10 21:15:47;;;;;;;2.90;2.43;;;5.00;90.40;;;;;;20997504;28;20258;-83
2023/03/10 21:25:48;;;;;;;4.07;2.43;;;4.90;90.00;;;;;;20999738;28;20208;-83
2023/03/10 21:35:50;;;;;;;2.70;2.50;;;4.80;89.40;;;;;;20993927;28;20626;-78
2023/03/10 21:45:52;;;;;;;2.67;2.30;;;4.70;90.00;;;;;;20993431;28;20611;-81
2023/03/10 21:55:54;;;;;;;3.17;2.13;;;4.70;90.00;;;;;;20992964;28;20699;-83
2023/03/10 22:05:55;;;;;;;2.63;2.13;;;4.60;90.10;;;;;;20992725;28;20264;-78
2023/03/10 22:16:03;;;;;;;3.33;2.30;;;4.50;88.90;;;;;;20992770;28;20323;-78
2023/03/10 22:26:06;;;;;;;3.03;2.37;;;4.50;90.20;;;;;;21003944;28;20207;-84
2023/03/10 22:36:11;;;;;;;3.60;2.20;;;4.50;90.50;;;;;;21034931;28;20229;-76
2023/03/10 22:46:14;;;;;;;2.63;2.00;;;4.60;90.30;;;;;;21000588;28;20293;-76
2023/03/10 22:56:16;;;;;;;2.23;2.00;;;4.60;88.90;;;;;;21006678;28;20643;-75
2023/03/10 23:06:19;;;;;;;1.50;1.40;;;4.60;87.60;;;;;;21007696;28;20204;-75
2023/03/10 23:16:22;;;;;;;2.00;1.80;;;4.60;87.00;;;;;;21005485;28;20310;-82
2023/03/10 23:26:24;;;;;;;2.87;1.77;;;4.40;86.00;;;;;;21006740;28;20288;-76
2023/03/10 23:36:26;;;;;;;1.93;1.70;;;;;;;;;;21006296;28;20594;-75
2023/03/10 23:46:28;;;;;;;2.10;1.63;;;;;;;;;;21004718;28;20212;-75
2023/03/10 23:56:30;;;;;;;1.67;1.33;;;;;;;;;;21003746;28;20240;-75
